createdAt,value
2022-11-24T00:02:17.976Z,6.80
2022-11-24T00:05:05.240Z,6.40
2022-11-24T00:07:52.005Z,6.10
2022-11-24T00:10:38.793Z,6.60
2022-11-24T00:13:25.709Z,6.50
2022-11-24T00:16:15.015Z,6.10
2022-11-24T00:19:02.764Z,6.20
2022-11-24T00:21:49.440Z,6.60
2022-11-24T00:24:36.345Z,6.20
2022-11-24T00:27:23.289Z,5.80
2022-11-24T00:30:10.211Z,6.20
2022-11-24T00:32:56.974Z,5.70
2022-11-24T00:35:43.736Z,5.80
2022-11-24T00:38:30.432Z,5.70
2022-11-24T00:41:17.253Z,5.90
2022-11-24T00:44:04.383Z,6.20
2022-11-24T00:46:51.182Z,5.70
2022-11-24T00:49:37.912Z,6.00
2022-11-24T00:52:24.723Z,6.00
2022-11-24T00:55:11.346Z,6.10
2022-11-24T00:57:58.177Z,5.80
2022-11-24T01:00:44.831Z,5.50
2022-11-24T01:03:31.645Z,5.70
2022-11-24T01:06:22.733Z,5.60
2022-11-24T01:09:11.468Z,5.50
2022-11-24T01:12:04.325Z,5.90
2022-11-24T01:14:51.087Z,5.70
2022-11-24T01:17:37.821Z,5.70
2022-11-24T01:20:24.528Z,5.70
2022-11-24T01:23:11.181Z,5.90
2022-11-24T01:25:57.907Z,5.50
2022-11-24T01:28:47.484Z,5.70
2022-11-24T01:31:36.923Z,5.90
2022-11-24T01:34:23.670Z,5.50
2022-11-24T01:37:10.739Z,5.40
2022-11-24T01:39:57.429Z,5.80
2022-11-24T01:42:48.426Z,5.90
2022-11-24T01:45:40.603Z,5.60
2022-11-24T01:48:29.968Z,5.20
2022-11-24T01:51:20.793Z,5.90
2022-11-24T01:54:29.368Z,5.70
2022-11-24T01:57:27.922Z,5.90
2022-11-24T02:00:16.288Z,5.80
2022-11-24T02:03:03.146Z,5.90
2022-11-24T02:06:00.300Z,6.30
2022-11-24T02:08:57.456Z,6.10
2022-11-24T02:11:46.317Z,6.20
2022-11-24T02:14:35.188Z,6.60
2022-11-24T02:17:24.359Z,6.70
2022-11-24T02:20:12.009Z,6.40
2022-11-24T02:23:07.317Z,6.40
2022-11-24T02:26:07.119Z,6.50
2022-11-24T02:28:55.223Z,6.50
2022-11-24T02:31:44.570Z,6.90
2022-11-24T02:34:33.452Z,7.00
2022-11-24T02:37:20.294Z,6.50
2022-11-24T02:40:09.271Z,7.00
2022-11-24T02:43:04.160Z,6.60
2022-11-24T02:45:52.413Z,6.60
2022-11-24T02:48:39.301Z,6.80
2022-11-24T02:51:27.358Z,6.60
2022-11-24T02:54:14.073Z,7.00
2022-11-24T02:57:02.253Z,6.20
2022-11-24T02:59:49.005Z,7.00
2022-11-24T03:02:37.309Z,6.80
2022-11-24T03:05:24.153Z,6.90
2022-11-24T03:08:14.208Z,6.70
2022-11-24T03:11:01.993Z,6.80
2022-11-24T03:13:51.227Z,6.70
2022-11-24T03:16:37.907Z,6.90
2022-11-24T03:19:26.331Z,6.80
2022-11-24T03:22:13.870Z,6.70
2022-11-24T03:25:02.310Z,6.40
2022-11-24T03:27:49.130Z,6.60
2022-11-24T03:30:37.343Z,6.50
2022-11-24T03:33:24.043Z,6.70
2022-11-24T03:36:12.286Z,6.20
2022-11-24T03:38:59.079Z,6.40
2022-11-24T03:41:47.259Z,5.90
2022-11-24T03:44:34.297Z,6.00
2022-11-24T03:47:23.324Z,5.60
2022-11-24T03:50:09.965Z,5.80
2022-11-24T03:52:58.267Z,5.80
2022-11-24T03:55:45.196Z,5.50
2022-11-24T03:58:33.311Z,5.70
2022-11-24T04:01:20.027Z,5.90
2022-11-24T04:04:06.788Z,5.50
2022-11-24T04:06:53.452Z,5.80
2022-11-24T04:09:40.761Z,5.80
2022-11-24T04:12:45.667Z,5.80
2022-11-24T04:15:32.369Z,5.60
2022-11-24T04:18:19.192Z,5.60
2022-11-24T04:21:06.306Z,5.90
2022-11-24T04:23:53.023Z,6.10
2022-11-24T04:26:39.735Z,5.60
2022-11-24T04:29:26.466Z,6.00
2022-11-24T04:32:13.434Z,5.40
2022-11-24T04:35:00.168Z,5.40
2022-11-24T04:37:47.175Z,5.70
2022-11-24T04:40:33.857Z,5.70
2022-11-24T04:43:21.888Z,5.70
2022-11-24T04:46:10.351Z,5.70
2022-11-24T04:48:57.236Z,5.60
2022-11-24T04:51:44.280Z,5.70
2022-11-24T04:54:31.114Z,5.80
2022-11-24T04:57:19.585Z,5.40
2022-11-24T05:00:06.712Z,5.00
2022-11-24T05:02:53.389Z,5.40
2022-11-24T05:05:40.069Z,5.90
2022-11-24T05:08:26.781Z,5.90
2022-11-24T05:11:13.583Z,5.70
2022-11-24T05:14:00.528Z,5.80
2022-11-24T05:16:47.462Z,5.80
2022-11-24T05:19:34.181Z,5.50
2022-11-24T05:22:20.895Z,6.00
2022-11-24T05:25:07.772Z,5.60
2022-11-24T05:27:54.492Z,5.50
2022-11-24T05:30:41.810Z,5.70
2022-11-24T05:33:30.181Z,5.50
2022-11-24T05:36:35.651Z,6.20
2022-11-24T05:39:22.408Z,5.40
2022-11-24T05:42:27.785Z,5.70
2022-11-24T05:45:19.076Z,5.80
2022-11-24T05:48:08.903Z,5.60
2022-11-24T05:50:56.644Z,5.80
2022-11-24T05:53:43.314Z,6.40
2022-11-24T05:56:30.388Z,6.10
2022-11-24T05:59:17.188Z,6.20
2022-11-24T06:02:04.104Z,6.10
2022-11-24T06:04:50.846Z,6.50
2022-11-24T06:07:37.576Z,6.80
2022-11-24T06:10:24.327Z,6.30
2022-11-24T06:13:11.189Z,7.10
2022-11-24T06:15:59.219Z,6.40
2022-11-24T06:18:46.145Z,6.80
2022-11-24T06:21:32.905Z,7.10
2022-11-24T06:24:19.680Z,6.40
2022-11-24T06:27:06.936Z,6.60
2022-11-24T06:29:53.749Z,6.40
2022-11-24T06:32:49.071Z,6.40
2022-11-24T06:35:36.488Z,6.70
2022-11-24T06:38:24.490Z,6.40
2022-11-24T06:41:15.662Z,6.60
2022-11-24T06:44:03.712Z,6.40
2022-11-24T06:46:50.498Z,6.80
2022-11-24T06:49:37.229Z,6.80
2022-11-24T06:52:23.905Z,7.20
2022-11-24T06:55:10.612Z,6.90
2022-11-24T06:57:57.416Z,6.50
2022-11-24T07:00:44.254Z,6.70
2022-11-24T07:03:31.042Z,6.90
2022-11-24T07:06:18.708Z,7.20
2022-11-24T07:09:05.717Z,6.80
2022-11-24T07:11:54.752Z,7.00
2022-11-24T07:14:41.554Z,7.10
2022-11-24T07:17:28.290Z,6.50
2022-11-24T07:20:15.252Z,6.60
2022-11-24T07:23:01.988Z,7.30
2022-11-24T07:25:48.782Z,6.00
2022-11-24T07:28:36.985Z,6.80
2022-11-24T07:31:26.801Z,6.60
2022-11-24T07:34:14.772Z,6.50
2022-11-24T07:37:01.634Z,6.40
2022-11-24T07:39:48.332Z,6.60
2022-11-24T07:42:35.171Z,6.20
2022-11-24T07:45:21.921Z,6.80
2022-11-24T07:48:12.159Z,6.30
2022-11-24T07:50:59.287Z,6.10
2022-11-24T07:53:46.194Z,6.50
2022-11-24T07:56:32.918Z,6.50
2022-11-24T07:59:19.713Z,6.20
2022-11-24T08:02:06.553Z,6.30
2022-11-24T08:04:53.432Z,6.20
2022-11-24T08:07:40.207Z,6.50
2022-11-24T08:10:27.237Z,6.60
2022-11-24T08:13:13.988Z,6.40
2022-11-24T08:16:03.905Z,6.70
2022-11-24T08:18:51.707Z,6.90
2022-11-24T08:21:38.609Z,7.00
2022-11-24T08:24:25.382Z,7.10
2022-11-24T08:27:12.748Z,7.30
2022-11-24T08:29:59.489Z,7.00
2022-11-24T08:32:46.209Z,7.20
2022-11-24T08:35:35.914Z,6.90
2022-11-24T08:38:23.137Z,6.50
2022-11-24T08:41:11.416Z,7.10
2022-11-24T08:44:00.180Z,6.80
2022-11-24T08:46:47.138Z,6.70
2022-11-24T08:49:35.163Z,6.90
2022-11-24T08:52:21.881Z,6.90
2022-11-24T08:55:10.203Z,7.00
2022-11-24T08:57:57.426Z,7.10
2022-11-24T09:00:46.182Z,7.20
2022-11-24T09:03:32.910Z,7.70
2022-11-24T09:06:24.150Z,7.60
2022-11-24T09:09:11.353Z,8.40
2022-11-24T09:11:59.319Z,7.80
2022-11-24T09:14:46.003Z,8.00
2022-11-24T09:17:34.342Z,7.80
2022-11-24T09:20:21.668Z,8.00
2022-11-24T09:23:10.235Z,8.20
2022-11-24T09:26:02.735Z,7.90
2022-11-24T09:28:52.108Z,8.20
2022-11-24T09:31:39.353Z,7.90
2022-11-24T09:34:27.213Z,8.60
2022-11-24T09:37:14.102Z,8.90
2022-11-24T09:40:02.162Z,8.70
2022-11-24T09:42:55.028Z,9.80
2022-11-24T09:46:04.487Z,9.60
2022-11-24T09:48:51.711Z,9.70
2022-11-24T09:51:40.134Z,10.30
2022-11-24T09:54:29.026Z,11.40
2022-11-24T09:57:18.275Z,12.30
2022-11-24T10:00:12.930Z,13.20
2022-11-24T10:03:01.159Z,14.40
2022-11-24T10:05:50.287Z,16.00
2022-11-24T10:08:57.202Z,18.80
2022-11-24T10:12:02.681Z,19.40
2022-11-24T10:15:10.128Z,17.30
2022-11-24T10:18:03.125Z,15.80
2022-11-24T10:20:59.171Z,15.50
2022-11-24T10:24:09.783Z,14.30
2022-11-24T10:26:59.707Z,13.10
2022-11-24T10:29:49.878Z,12.80
2022-11-24T10:32:37.898Z,14.70
2022-11-24T10:35:36.321Z,15.40
2022-11-24T10:38:35.639Z,14.70
2022-11-24T10:41:45.333Z,13.50
2022-11-24T10:44:32.260Z,13.30
2022-11-24T10:47:20.327Z,15.20
2022-11-24T10:50:10.090Z,15.90
2022-11-24T10:53:10.198Z,17.50
2022-11-24T10:56:00.003Z,20.60
2022-11-24T10:58:46.866Z,24.80
2022-11-24T11:01:33.855Z,27.70
2022-11-24T11:04:26.428Z,27.20
2022-11-24T11:07:21.108Z,26.30
2022-11-24T11:10:18.684Z,24.20
2022-11-24T11:13:28.196Z,22.70
2022-11-24T11:16:23.330Z,20.40
2022-11-24T11:22:36.911Z,19.70
2022-11-24T11:25:32.594Z,17.80
2022-11-24T11:28:31.167Z,16.30
2022-11-24T11:31:21.730Z,17.00
2022-11-24T11:34:14.387Z,18.40
2022-11-24T11:37:09.976Z,18.30
2022-11-24T11:39:56.975Z,17.70
2022-11-24T11:43:03.908Z,18.10
2022-11-24T11:45:59.703Z,19.70
2022-11-24T11:48:47.412Z,19.10
2022-11-24T11:51:34.255Z,17.50
2022-11-24T11:54:50.692Z,15.90
2022-11-24T11:57:57.648Z,14.50
2022-11-24T12:00:52.684Z,13.20
2022-11-24T12:03:58.340Z,12.50
2022-11-24T12:06:45.410Z,12.50
2022-11-24T12:09:32.053Z,12.50
2022-11-24T12:12:36.995Z,12.70
2022-11-24T12:15:42.451Z,12.20
2022-11-24T12:21:43.768Z,11.70
2022-11-24T12:24:56.872Z,11.50
2022-11-24T12:27:50.090Z,11.30
2022-11-24T12:30:48.752Z,11.20
2022-11-24T12:33:40.419Z,10.70
2022-11-24T12:36:33.203Z,10.60
2022-11-24T12:39:19.852Z,10.20
2022-11-24T12:42:23.707Z,10.10
2022-11-24T12:45:14.611Z,10.20
2022-11-24T12:48:03.727Z,10.90
2022-11-24T12:50:52.269Z,10.90
2022-11-24T12:53:39.465Z,11.30
2022-11-24T12:56:30.856Z,11.40
2022-11-24T12:59:49.981Z,11.10
2022-11-24T13:02:59.938Z,11.00
2022-11-24T13:05:52.873Z,11.70
2022-11-24T13:08:39.782Z,12.20
2022-11-24T13:11:33.764Z,12.50
2022-11-24T13:14:28.632Z,12.60
2022-11-24T13:17:31.654Z,13.00
2022-11-24T13:20:30.599Z,13.50
2022-11-24T13:23:23.650Z,13.80
2022-11-24T13:26:14.752Z,13.80
2022-11-24T13:29:17.956Z,13.60
2022-11-24T13:32:11.709Z,13.50
2022-11-24T13:35:03.399Z,13.40
2022-11-24T13:37:51.684Z,13.40
2022-11-24T13:40:45.877Z,12.90
2022-11-24T13:44:01.248Z,12.50
2022-11-24T13:47:04.800Z,12.10
2022-11-24T13:49:52.632Z,11.90
2022-11-24T13:52:39.636Z,11.80
2022-11-24T13:55:31.937Z,11.80
2022-11-24T13:58:25.049Z,11.80
2022-11-24T14:01:19.570Z,11.20
2022-11-24T14:04:30.437Z,11.00
2022-11-24T14:07:18.793Z,10.80
2022-11-24T14:10:05.950Z,10.80
2022-11-24T14:16:07.132Z,11.00
2022-11-24T14:18:54.005Z,11.10
2022-11-24T14:21:41.464Z,10.90
2022-11-24T14:24:33.454Z,10.60
2022-11-24T14:27:26.714Z,10.40
2022-11-24T14:30:13.631Z,10.40
2022-11-24T14:33:01.236Z,10.30
2022-11-24T14:35:49.606Z,10.00
2022-11-24T14:38:36.242Z,9.90
2022-11-24T14:41:26.277Z,10.00
2022-11-24T14:44:16.759Z,9.40
2022-11-24T14:47:04.841Z,9.30
2022-11-24T14:49:52.234Z,9.50
2022-11-24T14:52:44.620Z,9.20
2022-11-24T14:55:32.252Z,9.10
2022-11-24T14:58:20.284Z,9.30
2022-11-24T15:01:08.395Z,9.10
2022-11-24T15:04:26.446Z,9.00
2022-11-24T15:07:24.300Z,9.00
2022-11-24T15:10:22.689Z,8.90
2022-11-24T15:13:17.202Z,8.80
2022-11-24T15:16:06.441Z,8.60
2022-11-24T15:18:58.561Z,8.90
2022-11-24T15:21:45.282Z,8.50
2022-11-24T15:24:32.360Z,8.40
2022-11-24T15:27:19.308Z,8.40
2022-11-24T15:30:06.253Z,8.40
2022-11-24T15:32:54.202Z,8.30
2022-11-24T15:35:41.324Z,8.10
2022-11-24T15:38:27.993Z,8.70
2022-11-24T15:41:22.024Z,8.40
2022-11-24T15:44:09.484Z,8.00
2022-11-24T15:46:56.231Z,7.90
2022-11-24T15:49:42.923Z,8.10
2022-11-24T15:52:30.433Z,7.80
2022-11-24T15:55:21.395Z,8.00
2022-11-24T15:58:10.873Z,7.60
2022-11-24T16:00:57.529Z,8.10
2022-11-24T16:03:47.312Z,7.60
2022-11-24T16:06:35.364Z,7.90
2022-11-24T16:09:22.293Z,8.00
2022-11-24T16:12:09.680Z,7.80
2022-11-24T16:14:56.428Z,7.70
2022-11-24T16:17:43.107Z,7.50
2022-11-24T16:20:30.828Z,7.70
2022-11-24T16:23:17.604Z,7.40
2022-11-24T16:26:05.033Z,7.60
2022-11-24T16:28:51.777Z,7.30
2022-11-24T16:31:38.582Z,7.40
2022-11-24T16:34:25.292Z,7.30
2022-11-24T16:37:12.067Z,7.40
2022-11-24T16:39:58.828Z,7.10
2022-11-24T16:42:45.511Z,6.80
2022-11-24T16:45:32.218Z,6.90
2022-11-24T16:48:18.948Z,6.30
2022-11-24T16:51:06.612Z,6.60
2022-11-24T16:53:57.347Z,6.60
2022-11-24T16:56:44.010Z,6.50
2022-11-24T16:59:30.771Z,6.30
2022-11-24T17:02:17.458Z,6.70
2022-11-24T17:05:04.433Z,6.70
2022-11-24T17:07:51.158Z,6.70
2022-11-24T17:10:38.399Z,6.10
2022-11-24T17:13:25.031Z,6.40
2022-11-24T17:16:14.047Z,6.30
2022-11-24T17:19:00.862Z,6.80
2022-11-24T17:21:48.491Z,6.00
2022-11-24T17:24:35.577Z,6.20
2022-11-24T17:27:22.427Z,5.90
2022-11-24T17:30:09.185Z,6.10
2022-11-24T17:32:57.162Z,5.90
2022-11-24T17:35:43.855Z,6.40
2022-11-24T17:38:34.393Z,6.00
2022-11-24T17:41:22.084Z,5.50
2022-11-24T17:44:10.724Z,6.00
2022-11-24T17:46:58.912Z,6.00
2022-11-24T17:49:51.427Z,5.50
2022-11-24T17:52:38.670Z,5.40
2022-11-24T17:55:25.341Z,5.50
2022-11-24T17:58:12.070Z,5.50
2022-11-24T18:00:59.053Z,5.60
2022-11-24T18:03:48.990Z,5.60
2022-11-24T18:06:39.880Z,5.60
2022-11-24T18:09:26.493Z,6.00
2022-11-24T18:12:13.360Z,5.70
2022-11-24T18:15:00.053Z,6.10
2022-11-24T18:17:46.724Z,5.80
2022-11-24T18:20:33.403Z,5.80
2022-11-24T18:23:28.053Z,5.60
2022-11-24T18:26:15.336Z,5.60
2022-11-24T18:29:08.396Z,5.60
2022-11-24T18:31:57.431Z,5.60
2022-11-24T18:34:46.024Z,6.20
2022-11-24T18:37:45.086Z,5.60
2022-11-24T18:40:33.084Z,5.50
2022-11-24T18:43:20.939Z,5.40
2022-11-24T18:46:12.357Z,5.30
2022-11-24T18:48:59.162Z,5.30
2022-11-24T18:51:49.941Z,5.30
2022-11-24T18:54:36.988Z,5.50
2022-11-24T18:57:26.944Z,5.20
2022-11-24T19:00:13.762Z,5.30
2022-11-24T19:03:04.945Z,5.10
2022-11-24T19:05:51.772Z,4.90
2022-11-24T19:08:39.944Z,4.90
2022-11-24T19:11:28.337Z,5.00
2022-11-24T19:14:17.969Z,5.00
2022-11-24T19:17:04.834Z,5.10
2022-11-24T19:19:54.936Z,5.30
2022-11-24T19:22:42.373Z,4.90
2022-11-24T19:25:30.943Z,4.60
2022-11-24T19:28:17.599Z,4.50
2022-11-24T19:31:06.877Z,4.40
2022-11-24T19:33:54.640Z,4.50
2022-11-24T19:36:44.935Z,4.50
2022-11-24T19:39:34.496Z,4.80
2022-11-24T19:42:22.890Z,4.70
2022-11-24T19:45:09.725Z,5.10
2022-11-24T19:48:00.918Z,4.70
2022-11-24T19:50:47.589Z,4.80
2022-11-24T19:53:35.915Z,5.30
2022-11-24T19:56:23.966Z,4.30
2022-11-24T19:59:13.914Z,4.30
2022-11-24T20:02:02.475Z,4.10
2022-11-24T20:04:53.875Z,4.00
2022-11-24T20:07:40.537Z,4.50
2022-11-24T20:10:28.880Z,4.50
2022-11-24T20:13:15.569Z,4.10
2022-11-24T20:16:09.690Z,4.20
2022-11-24T20:19:00.336Z,4.20
2022-11-24T20:21:51.909Z,4.30
2022-11-24T20:24:38.551Z,4.10
2022-11-24T20:27:28.078Z,4.00
2022-11-24T20:30:17.409Z,4.00
2022-11-24T20:33:05.967Z,3.90
2022-11-24T20:35:52.654Z,3.90
2022-11-24T20:38:44.627Z,4.40
2022-11-24T20:41:38.071Z,3.90
2022-11-24T20:44:27.900Z,3.80
2022-11-24T20:47:14.641Z,3.80
2022-11-24T20:50:05.969Z,4.10
2022-11-24T20:52:55.592Z,3.70
2022-11-24T20:55:43.852Z,3.70
2022-11-24T20:58:32.837Z,3.60
2022-11-24T21:01:32.944Z,3.50
2022-11-24T21:04:21.464Z,3.50
2022-11-24T21:07:09.946Z,3.40
2022-11-24T21:09:56.732Z,3.70
2022-11-24T21:12:44.898Z,3.30
2022-11-24T21:15:31.525Z,3.30
2022-11-24T21:18:20.886Z,3.30
2022-11-24T21:21:07.471Z,3.20
2022-11-24T21:23:55.855Z,3.90
2022-11-24T21:26:43.114Z,3.30
2022-11-24T21:29:31.019Z,3.40
2022-11-24T21:32:17.646Z,3.40
2022-11-24T21:35:05.841Z,3.90
2022-11-24T21:37:52.450Z,3.20
2022-11-24T21:40:43.685Z,3.20
2022-11-24T21:43:34.329Z,3.60
2022-11-24T21:46:22.875Z,3.10
2022-11-24T21:49:09.477Z,3.10
2022-11-24T21:51:57.846Z,3.10
2022-11-24T21:54:44.501Z,3.20
2022-11-24T21:57:32.871Z,3.30
2022-11-24T22:00:19.916Z,3.20
2022-11-24T22:03:08.869Z,3.30
2022-11-24T22:05:56.463Z,3.30
2022-11-24T22:08:44.856Z,3.00
2022-11-24T22:11:31.448Z,3.40
2022-11-24T22:14:19.827Z,3.80
2022-11-24T22:17:06.534Z,3.40
2022-11-24T22:19:54.833Z,3.30
2022-11-24T22:22:41.510Z,3.30
2022-11-24T22:25:29.844Z,3.10
2022-11-24T22:28:16.457Z,3.10
2022-11-24T22:31:05.864Z,3.10
2022-11-24T22:33:53.440Z,3.00
2022-11-24T22:36:41.849Z,3.00
2022-11-24T22:39:28.587Z,3.00
2022-11-24T22:42:16.832Z,2.90
2022-11-24T22:45:03.567Z,3.40
2022-11-24T22:47:54.798Z,2.90
2022-11-24T22:50:41.421Z,3.00
2022-11-24T22:53:29.794Z,3.10
2022-11-24T22:56:16.819Z,3.00
2022-11-24T22:59:05.869Z,3.00
2022-11-24T23:01:52.457Z,2.90
2022-11-24T23:04:40.794Z,2.80
2022-11-24T23:07:27.428Z,2.90
2022-11-24T23:10:15.976Z,3.20
2022-11-24T23:13:02.618Z,3.00
2022-11-24T23:15:50.804Z,2.90
2022-11-24T23:18:37.794Z,3.40
2022-11-24T23:21:26.867Z,2.80
2022-11-24T23:24:13.598Z,3.30
2022-11-24T23:27:01.838Z,2.80
2022-11-24T23:29:48.469Z,3.30
2022-11-24T23:32:36.854Z,2.80
2022-11-24T23:35:23.660Z,3.00
2022-11-24T23:38:11.808Z,2.80
2022-11-24T23:41:04.168Z,2.90
2022-11-24T23:43:52.855Z,3.20
2022-11-24T23:46:39.464Z,2.80
2022-11-24T23:49:27.825Z,3.00
2022-11-24T23:52:14.443Z,3.10
2022-11-24T23:55:02.855Z,3.40
2022-11-24T23:57:49.482Z,3.10
